createdAt,value
2023-05-04T00:00:37.112Z,58.12
2023-05-04T00:01:40.205Z,58.27
2023-05-04T00:02:43.187Z,58.35
2023-05-04T00:03:46.647Z,58.44
2023-05-04T00:06:04.247Z,58.66
2023-05-04T00:07:07.141Z,58.83
2023-05-04T00:08:10.089Z,58.91
2023-05-04T00:09:13.073Z,58.82
2023-05-04T00:10:16.063Z,58.98
2023-05-04T00:11:19.060Z,59.08
2023-05-04T00:12:22.054Z,59.26
2023-05-04T00:13:25.082Z,59.28
2023-05-04T00:14:28.078Z,59.37
2023-05-04T00:15:31.094Z,59.51
2023-05-04T00:16:35.054Z,59.79
2023-05-04T00:17:38.018Z,59.84
2023-05-04T00:18:41.110Z,59.96
2023-05-04T00:19:44.030Z,60.02
2023-05-04T00:20:47.032Z,60.06
2023-05-04T00:21:49.917Z,60.50
2023-05-04T00:22:53.034Z,60.85
2023-05-04T00:23:55.911Z,61.09
2023-05-04T00:24:58.899Z,61.36
2023-05-04T00:26:01.829Z,61.49
2023-05-04T00:27:04.834Z,61.53
2023-05-04T00:28:07.860Z,61.79
2023-05-04T00:29:10.869Z,61.81
2023-05-04T00:30:14.130Z,61.71
2023-05-04T00:31:17.166Z,61.66
2023-05-04T00:32:20.145Z,61.62
2023-05-04T00:33:23.132Z,61.68
2023-05-04T00:34:26.031Z,61.69
2023-05-04T00:35:29.638Z,61.76
2023-05-04T00:36:32.631Z,61.93
2023-05-04T00:37:35.505Z,61.95
2023-05-04T00:38:50.981Z,61.95
2023-05-04T00:39:54.007Z,61.96
2023-05-04T00:40:56.978Z,62.16
2023-05-04T00:42:00.108Z,61.95
2023-05-04T00:43:03.092Z,61.92
2023-05-04T00:44:06.112Z,61.89
2023-05-04T00:45:09.369Z,61.77
2023-05-04T00:46:12.672Z,61.58
2023-05-04T00:47:15.875Z,61.69
2023-05-04T00:48:19.119Z,61.78
2023-05-04T00:49:22.488Z,61.86
2023-05-04T00:50:26.194Z,61.81
2023-05-04T00:51:29.395Z,61.66
2023-05-04T00:52:33.415Z,61.61
2023-05-04T00:53:37.996Z,61.58
2023-05-04T00:54:42.097Z,61.62
2023-05-04T00:55:45.608Z,61.64
2023-05-04T00:56:48.740Z,61.90
2023-05-04T00:57:52.023Z,62.05
2023-05-04T00:58:54.920Z,61.81
2023-05-04T01:01:09.035Z,61.54
2023-05-04T01:02:11.993Z,61.64
2023-05-04T01:04:25.747Z,61.53
2023-05-04T01:05:30.616Z,61.63
2023-05-04T01:06:47.791Z,61.62
2023-05-04T01:07:58.473Z,61.67
2023-05-04T01:12:06.768Z,62.30
2023-05-04T01:13:13.872Z,62.54
2023-05-04T01:15:36.039Z,63.07
2023-05-04T01:16:39.300Z,63.12
2023-05-04T01:17:45.407Z,63.23
2023-05-04T01:18:48.633Z,63.24
2023-05-04T01:19:51.751Z,63.05
2023-05-04T01:20:54.978Z,62.96
2023-05-04T01:21:58.007Z,62.96
2023-05-04T01:23:01.696Z,62.90
2023-05-04T01:24:05.626Z,62.73
2023-05-04T01:25:11.616Z,62.65
2023-05-04T01:26:25.744Z,62.60
2023-05-04T01:31:38.991Z,62.92
2023-05-04T01:32:42.397Z,62.79
2023-05-04T01:33:45.760Z,62.61
2023-05-04T01:34:48.652Z,62.46
2023-05-04T01:35:51.627Z,62.35
2023-05-04T01:36:55.157Z,62.39
2023-05-04T01:37:58.454Z,62.26
2023-05-04T01:39:02.791Z,62.43
2023-05-04T01:40:06.352Z,62.56
2023-05-04T01:41:09.407Z,62.51
2023-05-04T01:42:12.319Z,62.50
2023-05-04T01:43:15.204Z,62.41
2023-05-04T01:44:18.078Z,62.20
2023-05-04T01:45:21.115Z,62.08
2023-05-04T01:46:24.146Z,62.26
2023-05-04T01:47:27.379Z,62.05
2023-05-04T01:48:30.281Z,61.94
2023-05-04T01:49:33.339Z,62.22
2023-05-04T01:50:36.322Z,62.34
2023-05-04T01:51:39.219Z,62.37
2023-05-04T01:55:14.347Z,62.53
2023-05-04T01:56:17.556Z,62.29
2023-05-04T01:57:20.521Z,62.27
2023-05-04T01:58:23.604Z,61.87
2023-05-04T01:59:26.576Z,61.62
2023-05-04T02:00:29.572Z,61.48
2023-05-04T02:02:43.983Z,61.68
2023-05-04T02:03:47.018Z,61.67
2023-05-04T02:04:50.025Z,61.55
2023-05-04T02:05:53.378Z,61.41
2023-05-04T02:06:56.368Z,61.37
2023-05-04T02:07:59.371Z,61.71
2023-05-04T02:09:02.366Z,61.77
2023-05-04T02:10:06.107Z,61.88
2023-05-04T02:11:09.340Z,62.56
2023-05-04T02:12:12.225Z,61.96
2023-05-04T02:13:15.211Z,62.49
2023-05-04T02:14:18.217Z,63.44
2023-05-04T02:15:21.104Z,62.74
2023-05-04T02:16:24.271Z,62.67
2023-05-04T02:17:27.212Z,63.14
2023-05-04T02:18:30.219Z,63.04
2023-05-04T02:19:33.236Z,63.00
2023-05-04T02:20:36.193Z,62.44
2023-05-04T02:21:40.820Z,62.45
2023-05-04T02:22:43.837Z,62.65
2023-05-04T02:23:46.851Z,62.71
2023-05-04T02:24:49.715Z,62.16
2023-05-04T02:25:53.912Z,61.57
2023-05-04T02:26:56.914Z,62.22
2023-05-04T02:27:59.830Z,62.01
2023-05-04T02:29:02.814Z,61.91
2023-05-04T02:30:06.777Z,62.47
2023-05-04T02:31:09.799Z,62.29
2023-05-04T02:32:12.669Z,62.36
2023-05-04T02:33:15.600Z,62.44
2023-05-04T02:34:18.572Z,62.48
2023-05-04T02:35:21.675Z,62.54
2023-05-04T02:36:24.672Z,63.02
2023-05-04T02:37:27.690Z,63.32
2023-05-04T02:38:30.710Z,63.62
2023-05-04T02:39:33.582Z,63.89
2023-05-04T02:40:36.608Z,64.00
2023-05-04T02:41:39.686Z,64.30
2023-05-04T02:42:42.636Z,64.18
2023-05-04T02:43:45.809Z,64.28
2023-05-04T02:44:48.804Z,64.11
2023-05-04T02:45:51.827Z,63.88
2023-05-04T02:46:54.793Z,63.71
2023-05-04T02:47:57.853Z,63.45
2023-05-04T02:49:00.794Z,63.69
2023-05-04T02:50:04.532Z,63.83
2023-05-04T02:51:07.705Z,63.80
2023-05-04T02:52:10.597Z,63.69
2023-05-04T02:54:24.303Z,64.09
2023-05-04T02:55:27.277Z,64.09
2023-05-04T02:56:30.286Z,64.06
2023-05-04T02:57:33.182Z,64.09
2023-05-04T02:58:36.185Z,64.04
2023-05-04T02:59:39.097Z,63.71
2023-05-04T03:00:42.166Z,63.49
2023-05-04T03:01:45.184Z,63.10
2023-05-04T03:04:06.178Z,63.19
2023-05-04T03:05:09.040Z,64.09
2023-05-04T03:06:12.534Z,63.90
2023-05-04T03:07:15.640Z,63.90
2023-05-04T03:08:18.719Z,63.74
2023-05-04T03:09:21.715Z,63.01
2023-05-04T03:10:24.729Z,62.92
2023-05-04T03:11:27.709Z,62.95
2023-05-04T03:12:30.724Z,62.66
2023-05-04T03:13:33.678Z,62.57
2023-05-04T03:14:36.584Z,62.38
2023-05-04T03:15:39.503Z,62.05
2023-05-04T03:16:42.568Z,61.73
2023-05-04T03:17:45.585Z,61.46
2023-05-04T03:20:09.807Z,61.45
2023-05-04T03:21:12.677Z,61.21
2023-05-04T03:22:15.550Z,61.16
2023-05-04T03:23:18.512Z,61.27
2023-05-04T03:24:21.523Z,60.80
2023-05-04T03:25:24.516Z,60.50
2023-05-04T03:26:27.480Z,60.35
2023-05-04T03:27:30.352Z,59.94
2023-05-04T03:28:33.267Z,59.56
2023-05-04T03:29:36.237Z,59.20
2023-05-04T03:30:39.403Z,58.99
2023-05-04T03:31:42.365Z,59.15
2023-05-04T03:32:45.385Z,59.24
2023-05-04T03:33:48.388Z,59.19
2023-05-04T03:34:51.287Z,59.11
2023-05-04T03:35:54.197Z,59.22
2023-05-04T03:36:57.204Z,58.79
2023-05-04T03:38:00.200Z,58.51
2023-05-04T03:39:03.238Z,58.42
2023-05-04T03:40:06.733Z,58.45
2023-05-04T03:41:10.331Z,58.44
2023-05-04T03:42:13.317Z,58.48
2023-05-04T03:43:16.188Z,58.52
2023-05-04T03:44:19.092Z,58.16
2023-05-04T03:45:22.016Z,58.16
2023-05-04T03:46:25.066Z,57.94
2023-05-04T03:47:27.923Z,57.97
2023-05-04T03:48:30.901Z,57.63
2023-05-04T03:49:34.210Z,57.77
2023-05-04T03:50:37.204Z,57.81
2023-05-04T03:51:40.217Z,57.82
2023-05-04T03:52:43.075Z,57.59
2023-05-04T03:54:57.075Z,57.93
2023-05-04T03:56:00.189Z,58.22
2023-05-04T03:57:03.292Z,58.29
2023-05-04T03:58:06.279Z,58.36
2023-05-04T03:59:09.283Z,58.53
2023-05-04T04:00:13.041Z,58.57
2023-05-04T04:02:26.972Z,58.60
2023-05-04T04:03:30.457Z,58.42
2023-05-04T04:04:33.835Z,58.46
2023-05-04T04:05:36.797Z,58.32
2023-05-04T04:06:41.938Z,58.28
2023-05-04T04:07:44.542Z,58.11
2023-05-04T04:08:47.566Z,58.10
2023-05-04T04:09:50.481Z,57.79
2023-05-04T04:10:53.547Z,57.62
2023-05-04T04:11:56.534Z,57.46
2023-05-04T04:12:59.574Z,57.31
2023-05-04T04:14:02.505Z,57.05
2023-05-04T04:15:06.040Z,56.79
2023-05-04T04:16:09.449Z,56.94
2023-05-04T04:17:12.415Z,57.18
2023-05-04T04:18:15.393Z,57.35
2023-05-04T04:19:18.433Z,56.90
2023-05-04T04:20:21.544Z,56.37
2023-05-04T04:21:24.501Z,56.18
2023-05-04T04:22:27.470Z,56.16
2023-05-04T04:23:30.462Z,55.75
2023-05-04T04:24:33.487Z,55.51
2023-05-04T04:25:36.366Z,55.53
2023-05-04T04:26:39.338Z,55.60
2023-05-04T04:27:42.232Z,55.78
2023-05-04T04:28:45.177Z,55.35
2023-05-04T04:29:48.167Z,55.09
2023-05-04T04:30:51.247Z,54.66
2023-05-04T04:31:54.283Z,54.59
2023-05-04T04:32:57.220Z,54.81
2023-05-04T04:34:00.276Z,54.45
2023-05-04T04:35:03.446Z,53.91
2023-05-04T04:36:06.812Z,53.75
2023-05-04T04:37:09.798Z,53.64
2023-05-04T04:38:12.693Z,53.26
2023-05-04T04:39:15.622Z,53.44
2023-05-04T04:40:18.599Z,53.31
2023-05-04T04:41:21.579Z,53.58
2023-05-04T04:42:24.722Z,53.27
2023-05-04T04:43:27.624Z,53.38
2023-05-04T04:44:30.627Z,53.15
2023-05-04T04:45:34.041Z,52.79
2023-05-04T04:46:37.041Z,52.23
2023-05-04T04:47:39.920Z,52.26
2023-05-04T04:48:42.897Z,51.96
2023-05-04T04:49:45.826Z,52.10
2023-05-04T04:50:48.926Z,52.08
2023-05-04T04:51:51.874Z,52.00
2023-05-04T04:52:54.998Z,51.75
2023-05-04T04:53:58.003Z,51.59
2023-05-04T04:55:00.897Z,51.82
2023-05-04T04:56:04.572Z,51.84
2023-05-04T04:58:18.252Z,51.10
2023-05-04T04:59:21.307Z,50.87
2023-05-04T05:00:24.429Z,51.12
2023-05-04T05:01:27.489Z,51.51
2023-05-04T05:03:41.588Z,51.11
2023-05-04T05:04:44.794Z,51.15
2023-05-04T05:05:47.804Z,50.83
2023-05-04T05:06:50.798Z,50.64
2023-05-04T05:07:53.816Z,50.39
2023-05-04T05:08:56.866Z,50.42
2023-05-04T05:09:59.898Z,50.38
2023-05-04T05:11:02.936Z,50.24
2023-05-04T05:12:06.056Z,50.16
2023-05-04T05:13:09.137Z,50.16
2023-05-04T05:14:12.229Z,49.60
2023-05-04T05:15:15.539Z,48.87
2023-05-04T05:16:18.592Z,48.97
2023-05-04T05:17:21.557Z,49.07
2023-05-04T05:18:24.569Z,49.16
2023-05-04T05:19:27.516Z,49.09
2023-05-04T05:20:30.512Z,48.88
2023-05-04T05:21:33.532Z,48.85
2023-05-04T05:22:39.898Z,48.69
2023-05-04T05:24:53.689Z,48.65
2023-05-04T05:25:56.716Z,48.36
2023-05-04T05:28:12.614Z,48.16
2023-05-04T05:29:15.591Z,47.98
2023-05-04T05:30:18.711Z,48.13
2023-05-04T05:32:24.507Z,47.65
2023-05-04T05:33:27.368Z,47.47
2023-05-04T05:34:30.272Z,47.70
2023-05-04T05:35:33.284Z,47.62
2023-05-04T05:36:36.285Z,47.64
2023-05-04T05:37:39.343Z,47.32
2023-05-04T05:38:42.252Z,47.70
2023-05-04T05:39:45.135Z,47.53
2023-05-04T05:40:48.124Z,47.79
2023-05-04T05:43:03.838Z,46.95
2023-05-04T05:44:06.743Z,46.70
2023-05-04T05:45:10.164Z,46.83
2023-05-04T05:46:13.803Z,46.04
2023-05-04T05:48:27.484Z,45.99
2023-05-04T05:50:48.146Z,46.52
2023-05-04T05:51:51.039Z,46.36
2023-05-04T05:52:54.037Z,45.98
2023-05-04T05:53:57.000Z,46.04
2023-05-04T05:55:02.463Z,46.02
2023-05-04T05:56:05.027Z,45.99
2023-05-04T05:57:08.133Z,46.30
2023-05-04T05:59:22.349Z,46.34
2023-05-04T06:00:25.361Z,46.45
2023-05-04T06:01:28.857Z,46.70
2023-05-04T06:02:31.908Z,46.86
2023-05-04T06:03:35.077Z,46.75
2023-05-04T06:04:38.100Z,46.71
2023-05-04T06:06:55.031Z,47.05
2023-05-04T06:09:09.486Z,46.80
2023-05-04T06:10:13.940Z,46.63
2023-05-04T06:11:16.953Z,46.25
2023-05-04T06:12:19.907Z,45.98
2023-05-04T06:13:23.038Z,45.89
2023-05-04T06:15:36.704Z,45.68
2023-05-04T06:17:51.005Z,45.53
2023-05-04T06:20:08.860Z,45.38
2023-05-04T06:21:11.860Z,45.51
2023-05-04T06:23:29.600Z,45.53
2023-05-04T06:24:32.638Z,45.33
2023-05-04T06:26:53.776Z,45.82
2023-05-04T06:27:56.973Z,45.54
2023-05-04T06:29:00.063Z,45.37
2023-05-04T06:30:03.979Z,45.66
2023-05-04T06:31:07.526Z,45.94
2023-05-04T06:32:10.447Z,45.54
2023-05-04T06:34:24.775Z,45.73
2023-05-04T06:36:44.453Z,45.30
2023-05-04T06:37:47.405Z,45.23
2023-05-04T06:40:01.900Z,45.56
2023-05-04T06:41:04.792Z,45.70
2023-05-04T06:42:07.790Z,46.21
2023-05-04T06:44:22.077Z,45.53
2023-05-04T06:45:25.083Z,45.26
2023-05-04T06:47:46.464Z,45.41
2023-05-04T06:50:00.094Z,45.05
2023-05-04T06:52:13.744Z,44.37
2023-05-04T06:53:16.659Z,44.09
2023-05-04T06:55:31.064Z,44.22
2023-05-04T06:56:34.161Z,43.75
2023-05-04T06:57:37.201Z,43.53
2023-05-04T06:58:40.099Z,43.48
2023-05-04T06:59:43.005Z,43.57
2023-05-04T07:00:46.052Z,43.19
2023-05-04T07:03:00.343Z,43.51
2023-05-04T07:05:14.874Z,42.81
2023-05-04T07:06:17.898Z,42.83
2023-05-04T07:07:20.890Z,42.44
2023-05-04T07:08:23.952Z,42.45
2023-05-04T07:10:45.739Z,42.07
2023-05-04T07:11:48.803Z,41.33
2023-05-04T07:14:03.099Z,41.43
2023-05-04T07:16:17.738Z,41.36
2023-05-04T07:19:55.392Z,41.68
2023-05-04T07:23:30.266Z,41.53
2023-05-04T07:25:54.233Z,41.84
2023-05-04T07:26:57.321Z,41.66
2023-05-04T07:29:10.997Z,41.20
2023-05-04T07:31:35.552Z,41.19
2023-05-04T07:32:38.529Z,40.69
2023-05-04T07:34:52.558Z,40.66
2023-05-04T07:38:28.802Z,40.10
2023-05-04T07:40:55.406Z,39.17
2023-05-04T07:41:58.425Z,39.02
2023-05-04T07:44:12.599Z,39.94
2023-05-04T07:45:15.668Z,40.16
2023-05-04T07:46:18.818Z,40.28
2023-05-04T07:47:23.078Z,39.49
2023-05-04T07:48:26.988Z,39.56
2023-05-04T07:49:29.856Z,40.05
2023-05-04T07:50:33.036Z,39.36
2023-05-04T07:51:35.950Z,39.12
2023-05-04T07:52:38.966Z,39.12
2023-05-04T07:53:41.861Z,39.14
2023-05-04T07:54:44.910Z,39.61
2023-05-04T07:55:47.790Z,39.56
2023-05-04T07:56:50.939Z,39.77
2023-05-04T07:57:53.837Z,39.68
2023-05-04T07:58:56.758Z,39.67
2023-05-04T07:59:59.798Z,39.47
2023-05-04T08:01:02.790Z,40.06
2023-05-04T08:03:22.992Z,39.56
2023-05-04T08:04:26.046Z,39.37
2023-05-04T08:05:29.108Z,38.83
2023-05-04T08:06:32.099Z,38.33
2023-05-04T08:08:45.828Z,38.31
2023-05-04T08:09:48.816Z,38.42
2023-05-04T08:10:52.056Z,38.16
2023-05-04T08:11:54.958Z,38.35
2023-05-04T08:12:58.109Z,38.30
2023-05-04T08:14:01.027Z,38.69
2023-05-04T08:16:15.303Z,37.72
2023-05-04T08:18:43.285Z,37.64
2023-05-04T08:20:05.165Z,37.91
2023-05-04T08:21:08.371Z,37.91
2023-05-04T08:23:23.457Z,36.88
2023-05-04T08:24:26.606Z,36.92
2023-05-04T08:25:29.531Z,37.62
2023-05-04T08:30:28.431Z,37.19
2023-05-04T08:33:03.351Z,37.96
2023-05-04T08:35:17.344Z,38.42
2023-05-04T08:37:31.981Z,36.78
2023-05-04T08:39:46.139Z,36.23
2023-05-04T08:40:50.552Z,36.45
2023-05-04T08:43:08.251Z,36.35
2023-05-04T08:44:11.354Z,35.58
2023-05-04T08:46:32.904Z,35.54
2023-05-04T08:47:36.089Z,35.33
2023-05-04T08:52:15.490Z,36.13
2023-05-04T08:53:20.186Z,35.91
2023-05-04T08:55:44.531Z,36.33
2023-05-04T08:58:03.174Z,37.01
2023-05-04T09:00:19.221Z,36.71
2023-05-04T09:03:58.629Z,36.27
2023-05-04T09:06:19.094Z,35.13
2023-05-04T09:07:22.141Z,35.40
2023-05-04T09:08:26.100Z,35.85
2023-05-04T09:09:28.994Z,35.35
2023-05-04T09:10:32.727Z,35.56
2023-05-04T09:12:46.957Z,34.71
2023-05-04T09:15:00.602Z,33.80
2023-05-04T09:16:03.963Z,33.97
2023-05-04T09:18:26.268Z,32.84
2023-05-04T09:19:29.112Z,32.66
2023-05-04T09:23:08.452Z,32.71
2023-05-04T09:24:11.789Z,33.19
2023-05-04T09:25:14.678Z,33.59
2023-05-04T09:26:28.294Z,33.43
2023-05-04T09:29:56.381Z,32.76
2023-05-04T09:31:00.566Z,32.09
2023-05-04T09:32:04.042Z,31.68
2023-05-04T09:34:53.439Z,32.28
2023-05-04T09:35:58.255Z,28.99
2023-05-04T09:41:18.253Z,27.04
2023-05-04T09:45:06.690Z,27.38
2023-05-04T09:46:17.597Z,28.08
2023-05-04T09:47:20.566Z,26.77
2023-05-04T09:54:05.115Z,25.73
2023-05-04T09:55:10.101Z,25.87
2023-05-04T09:56:18.023Z,26.27
2023-05-04T09:57:21.084Z,26.32
2023-05-04T09:58:24.980Z,25.47
2023-05-04T09:59:29.692Z,24.93
2023-05-04T10:00:34.675Z,24.69
2023-05-04T10:01:38.185Z,24.44
2023-05-04T10:05:20.739Z,24.56
2023-05-04T10:08:59.564Z,26.18
2023-05-04T10:10:05.850Z,26.39
2023-05-04T10:12:22.297Z,26.72
2023-05-04T10:13:25.408Z,26.67
2023-05-04T10:14:32.750Z,26.70
2023-05-04T10:15:37.749Z,25.61
2023-05-04T10:16:42.721Z,25.18
2023-05-04T10:17:56.804Z,25.24
2023-05-04T10:19:11.056Z,25.09
2023-05-04T10:20:16.050Z,24.62
2023-05-04T10:22:46.516Z,23.83
2023-05-04T10:24:00.734Z,24.17
2023-05-04T10:26:34.690Z,24.35
2023-05-04T10:27:56.417Z,23.77
2023-05-04T10:29:04.612Z,23.82
2023-05-04T10:30:09.933Z,23.92
2023-05-04T10:31:13.316Z,23.88
2023-05-04T10:32:20.388Z,23.40
2023-05-04T10:33:24.382Z,23.46
2023-05-04T10:34:31.927Z,22.90
2023-05-04T10:35:35.220Z,23.06
2023-05-04T10:36:39.095Z,23.22
2023-05-04T10:39:02.026Z,22.78
2023-05-04T10:40:07.296Z,22.88
2023-05-04T10:41:14.333Z,23.09
2023-05-04T10:43:29.578Z,22.55
2023-05-04T10:45:48.777Z,21.92
2023-05-04T10:47:10.531Z,21.88
2023-05-04T10:48:13.799Z,21.80
2023-05-04T10:49:17.014Z,22.00
2023-05-04T10:51:46.490Z,21.66
2023-05-04T10:52:49.062Z,21.34
2023-05-04T10:53:52.804Z,21.57
2023-05-04T10:54:59.743Z,21.16
2023-05-04T10:56:03.039Z,20.83
2023-05-04T10:58:22.279Z,20.65
2023-05-04T10:59:25.474Z,20.81
2023-05-04T11:00:36.025Z,20.42
2023-05-04T11:01:43.859Z,20.29
2023-05-04T11:02:48.262Z,20.57
2023-05-04T11:03:52.005Z,20.99
2023-05-04T11:06:23.743Z,19.82
2023-05-04T11:07:37.631Z,20.58
2023-05-04T11:08:41.570Z,19.96
2023-05-04T11:09:44.654Z,20.45
2023-05-04T11:10:48.782Z,19.99
2023-05-04T11:11:52.712Z,20.23
2023-05-04T11:12:56.767Z,19.96
2023-05-04T11:14:00.170Z,20.20
2023-05-04T11:15:04.634Z,19.60
2023-05-04T11:17:28.943Z,19.99
2023-05-04T11:19:48.020Z,19.82
2023-05-04T11:20:51.138Z,18.96
2023-05-04T11:21:54.250Z,19.75
2023-05-04T11:22:57.813Z,19.00
2023-05-04T11:24:00.913Z,19.08
2023-05-04T11:25:04.560Z,18.91
2023-05-04T11:26:09.218Z,19.09
2023-05-04T11:27:25.438Z,18.34
2023-05-04T11:28:32.068Z,18.30
2023-05-04T11:32:14.994Z,17.84
2023-05-04T11:33:18.186Z,17.70
2023-05-04T11:34:21.328Z,17.50
2023-05-04T11:35:24.319Z,16.79
2023-05-04T11:36:27.514Z,17.30
2023-05-04T11:38:42.972Z,16.95
2023-05-04T11:39:46.158Z,17.21
2023-05-04T11:40:49.363Z,16.40
2023-05-04T11:41:52.542Z,16.17
2023-05-04T11:44:08.635Z,17.04
2023-05-04T11:45:18.843Z,16.97
2023-05-04T11:47:34.985Z,16.01
2023-05-04T11:49:52.562Z,16.91
2023-05-04T11:52:07.056Z,16.11
2023-05-04T11:55:34.191Z,16.54
2023-05-04T11:56:42.166Z,16.40
2023-05-04T11:58:55.776Z,15.49
2023-05-04T12:01:09.959Z,14.50
2023-05-04T12:02:16.733Z,15.08
2023-05-04T12:04:36.418Z,15.68
2023-05-04T12:07:01.540Z,14.92
2023-05-04T12:09:43.361Z,16.54
2023-05-04T12:12:07.463Z,15.74
2023-05-04T12:14:33.546Z,15.46
2023-05-04T12:16:57.999Z,15.06
2023-05-04T12:18:03.000Z,15.65
2023-05-04T12:20:23.382Z,15.89
2023-05-04T12:24:05.230Z,16.58
2023-05-04T12:27:47.942Z,17.43
2023-05-04T12:31:25.375Z,17.58
2023-05-04T12:33:54.806Z,17.88
2023-05-04T12:34:57.838Z,17.99
2023-05-04T12:39:45.883Z,16.96
2023-05-04T12:42:06.069Z,17.27
2023-05-04T12:44:20.358Z,17.13
2023-05-04T12:46:34.478Z,16.84
2023-05-04T12:48:49.181Z,16.54
2023-05-04T12:51:13.385Z,17.38
2023-05-04T12:53:33.519Z,16.47
2023-05-04T12:56:50.260Z,16.06
2023-05-04T12:59:03.912Z,16.43
2023-05-04T13:01:18.895Z,16.43
2023-05-04T13:03:36.006Z,16.32
2023-05-04T13:05:50.134Z,16.17
2023-05-04T13:08:04.388Z,15.62
2023-05-04T13:10:24.752Z,15.31
2023-05-04T13:11:27.811Z,15.49
2023-05-04T13:13:47.858Z,15.43
2023-05-04T13:16:02.110Z,15.70
2023-05-04T13:19:27.312Z,15.55
2023-05-04T13:21:43.635Z,15.04
2023-05-04T13:23:57.716Z,14.85
2023-05-04T13:26:11.985Z,14.72
2023-05-04T13:28:25.590Z,14.15
2023-05-04T13:30:39.615Z,14.31
2023-05-04T13:32:53.931Z,14.99
2023-05-04T13:33:56.858Z,15.42
2023-05-04T13:36:10.952Z,15.39
2023-05-04T13:38:31.096Z,15.85
2023-05-04T13:42:02.930Z,15.33
2023-05-04T13:43:05.822Z,15.71
2023-05-04T13:45:19.662Z,15.10
2023-05-04T13:47:39.923Z,15.57
2023-05-04T13:48:43.133Z,15.43
2023-05-04T13:50:57.539Z,14.98
2023-05-04T13:53:11.756Z,15.11
2023-05-04T13:55:25.364Z,15.46
2023-05-04T13:57:39.744Z,15.57
2023-05-04T13:58:42.626Z,15.98
2023-05-04T13:59:58.378Z,16.19
2023-05-04T14:02:07.315Z,16.66
2023-05-04T14:04:21.172Z,17.14
2023-05-04T14:06:35.321Z,17.84
2023-05-04T14:08:49.356Z,18.11
2023-05-04T14:11:19.493Z,18.68
2023-05-04T14:13:39.525Z,19.02
2023-05-04T14:17:04.878Z,19.07
2023-05-04T14:19:18.556Z,19.38
2023-05-04T14:21:38.658Z,19.40
2023-05-04T14:22:41.632Z,19.83
2023-05-04T14:24:55.666Z,20.27
2023-05-04T14:28:21.041Z,20.69
2023-05-04T14:30:45.234Z,20.57
2023-05-04T14:32:58.862Z,26.40
2023-05-04T14:36:34.145Z,30.21
2023-05-04T14:40:10.397Z,30.62
2023-05-04T14:42:35.804Z,31.31
2023-05-04T14:46:11.509Z,32.78
2023-05-04T14:49:48.564Z,33.66
2023-05-04T14:52:13.218Z,33.86
2023-05-04T14:54:37.046Z,34.10
2023-05-04T14:56:51.176Z,34.42
2023-05-04T14:59:05.481Z,35.16
2023-05-04T15:01:21.789Z,35.73
2023-05-04T15:05:01.785Z,35.55
2023-05-04T15:07:22.599Z,35.60
2023-05-04T15:09:28.072Z,35.26
2023-05-04T15:10:31.110Z,35.52
2023-05-04T15:12:46.206Z,35.86
2023-05-04T15:15:01.025Z,36.52
2023-05-04T15:17:15.390Z,36.91
2023-05-04T15:19:31.423Z,37.56
2023-05-04T15:21:48.903Z,37.34
2023-05-04T15:22:53.719Z,37.37
2023-05-04T15:25:13.963Z,37.70
2023-05-04T15:27:29.192Z,38.27
2023-05-04T15:29:56.162Z,38.76
2023-05-04T15:32:11.292Z,39.27
2023-05-04T15:34:25.427Z,39.34
2023-05-04T15:36:40.671Z,39.60
2023-05-04T15:38:54.852Z,39.68
2023-05-04T15:39:59.107Z,40.01
2023-05-04T15:42:13.625Z,40.26
2023-05-04T15:43:16.660Z,40.45
2023-05-04T15:44:19.599Z,40.91
2023-05-04T15:45:22.692Z,40.93
2023-05-04T15:46:25.786Z,41.33
2023-05-04T15:47:28.801Z,41.74
2023-05-04T15:52:12.484Z,42.83
2023-05-04T15:54:26.103Z,42.78
2023-05-04T15:55:29.097Z,42.77
2023-05-04T15:57:43.763Z,42.47
2023-05-04T15:58:46.749Z,42.30
2023-05-04T16:01:07.484Z,42.33
2023-05-04T16:03:23.880Z,41.46
2023-05-04T16:07:00.019Z,41.34
2023-05-04T16:09:24.244Z,41.24
2023-05-04T16:11:38.411Z,41.70
2023-05-04T16:14:02.553Z,42.25
2023-05-04T16:16:18.529Z,42.26
2023-05-04T16:18:42.838Z,42.33
2023-05-04T16:20:57.970Z,42.71
2023-05-04T16:23:22.038Z,42.80
2023-05-04T16:24:25.035Z,42.46
2023-05-04T16:25:27.950Z,42.32
2023-05-04T16:26:30.988Z,42.32
2023-05-04T16:28:46.035Z,43.57
2023-05-04T16:32:30.515Z,45.17
2023-05-04T16:34:44.732Z,46.20
2023-05-04T16:37:00.523Z,46.99
2023-05-04T16:38:03.577Z,46.77
2023-05-04T16:39:06.716Z,47.56
2023-05-04T16:40:10.649Z,47.58
2023-05-04T16:42:24.505Z,47.64
2023-05-04T16:44:46.260Z,48.98
2023-05-04T16:45:49.290Z,48.05
2023-05-04T16:48:05.265Z,48.50
2023-05-04T16:49:10.090Z,49.05
2023-05-04T16:51:30.401Z,48.68
2023-05-04T16:52:33.300Z,48.40
2023-05-04T16:54:53.596Z,48.14
2023-05-04T16:57:13.708Z,48.26
2023-05-04T16:59:29.866Z,49.12
2023-05-04T17:01:50.448Z,49.16
2023-05-04T17:04:04.363Z,49.15
2023-05-04T17:05:07.569Z,49.36
2023-05-04T17:06:10.609Z,49.76
2023-05-04T17:07:13.728Z,49.67
2023-05-04T17:08:16.767Z,49.93
2023-05-04T17:10:32.070Z,49.25
2023-05-04T17:12:45.704Z,49.51
2023-05-04T17:15:00.220Z,48.96
2023-05-04T17:17:15.089Z,48.67
2023-05-04T17:18:18.070Z,48.52
2023-05-04T17:20:32.386Z,48.19
2023-05-04T17:24:04.846Z,47.86
2023-05-04T17:25:08.984Z,47.56
2023-05-04T17:26:12.054Z,47.48
2023-05-04T17:27:15.030Z,47.36
2023-05-04T17:28:17.935Z,47.74
2023-05-04T17:29:20.879Z,47.49
2023-05-04T17:30:23.988Z,47.27
2023-05-04T17:31:27.044Z,47.11
2023-05-04T17:32:30.145Z,47.05
2023-05-04T17:33:33.126Z,47.80
2023-05-04T17:34:36.093Z,48.18
2023-05-04T17:35:38.980Z,48.33
2023-05-04T17:39:06.373Z,48.14
2023-05-04T17:40:10.248Z,47.97
2023-05-04T17:41:13.297Z,48.03
2023-05-04T17:42:16.267Z,47.80
2023-05-04T17:43:19.288Z,47.67
2023-05-04T17:44:22.432Z,47.95
2023-05-04T17:45:25.628Z,47.89
2023-05-04T17:46:28.777Z,47.99
2023-05-04T17:47:31.947Z,47.87
2023-05-04T17:48:34.828Z,47.59
2023-05-04T17:49:37.726Z,47.74
2023-05-04T17:50:40.805Z,47.75
2023-05-04T17:51:44.411Z,47.88
2023-05-04T17:52:54.141Z,47.88
2023-05-04T17:53:57.372Z,48.46
2023-05-04T17:55:00.371Z,49.11
2023-05-04T17:56:03.545Z,49.21
2023-05-04T17:57:06.441Z,49.25
2023-05-04T17:58:09.337Z,48.87
2023-05-04T17:59:12.272Z,48.65
2023-05-04T18:00:15.561Z,48.60
2023-05-04T18:01:18.689Z,48.43
2023-05-04T18:02:21.756Z,48.44
2023-05-04T18:03:24.708Z,48.72
2023-05-04T18:05:40.368Z,48.19
2023-05-04T18:06:43.460Z,48.00
2023-05-04T18:07:46.560Z,47.81
2023-05-04T18:08:49.529Z,47.71
2023-05-04T18:09:52.607Z,47.95
2023-05-04T18:10:55.578Z,47.74
2023-05-04T18:11:58.505Z,47.66
2023-05-04T18:13:01.488Z,47.94
2023-05-04T18:14:04.457Z,47.98
2023-05-04T18:15:08.234Z,47.96
2023-05-04T18:16:11.660Z,47.62
2023-05-04T18:17:14.686Z,47.53
2023-05-04T18:18:17.715Z,47.67
2023-05-04T18:19:20.600Z,47.68
2023-05-04T18:20:23.706Z,47.62
2023-05-04T18:21:26.761Z,47.59
2023-05-04T18:22:29.758Z,47.60
2023-05-04T18:23:32.714Z,47.88
2023-05-04T18:24:35.624Z,47.69
2023-05-04T18:25:38.757Z,47.40
2023-05-04T18:26:41.961Z,47.29
2023-05-04T18:27:45.053Z,47.16
2023-05-04T18:28:48.596Z,46.97
2023-05-04T18:29:51.695Z,46.91
2023-05-04T18:32:15.918Z,46.82
2023-05-04T18:33:19.004Z,47.13
2023-05-04T18:34:22.106Z,47.03
2023-05-04T18:35:25.225Z,47.04
2023-05-04T18:36:28.224Z,47.07
2023-05-04T18:37:31.651Z,47.09
2023-05-04T18:38:34.679Z,46.99
2023-05-04T18:39:37.580Z,46.91
2023-05-04T18:40:41.991Z,46.86
2023-05-04T18:41:45.065Z,46.67
2023-05-04T18:42:48.058Z,46.34
2023-05-04T18:43:50.992Z,46.24
2023-05-04T18:44:54.084Z,46.32
2023-05-04T18:45:57.144Z,46.34
2023-05-04T18:47:00.294Z,46.34
2023-05-04T18:48:03.462Z,46.16
2023-05-04T18:49:06.470Z,46.23
2023-05-04T18:50:10.259Z,46.06
2023-05-04T18:51:13.488Z,46.12
2023-05-04T18:52:16.695Z,46.04
2023-05-04T18:53:19.718Z,46.09
2023-05-04T18:54:22.892Z,46.26
2023-05-04T18:55:25.854Z,46.14
2023-05-04T18:56:28.954Z,46.23
2023-05-04T18:57:31.949Z,46.24
2023-05-04T18:58:36.074Z,46.30
2023-05-04T18:59:39.206Z,46.23
2023-05-04T19:00:42.228Z,46.20
2023-05-04T19:01:45.265Z,45.87
2023-05-04T19:02:48.345Z,45.88
2023-05-04T19:03:51.433Z,45.72
2023-05-04T19:06:09.902Z,45.44
2023-05-04T19:07:13.214Z,45.50
2023-05-04T19:08:16.354Z,45.49
2023-05-04T19:09:19.513Z,45.52